createdAt,value
2023-04-28T00:00:17.053Z,48.65
2023-04-28T00:02:48.169Z,48.13
2023-04-28T00:05:17.253Z,48.72
2023-04-28T00:07:47.978Z,48.39
2023-04-28T00:10:16.882Z,49.15
2023-04-28T00:12:45.830Z,48.96
2023-04-28T00:15:14.698Z,49.18
2023-04-28T00:17:44.382Z,49.26
2023-04-28T00:20:13.654Z,49.16
2023-04-28T00:22:42.736Z,49.66
2023-04-28T00:25:12.894Z,49.34
2023-04-28T00:27:41.716Z,49.41
2023-04-28T00:30:11.624Z,50.31
2023-04-28T00:32:40.537Z,51.08
2023-04-28T00:35:10.218Z,51.77
2023-04-28T00:37:39.238Z,51.40
2023-04-28T00:40:09.293Z,50.13
2023-04-28T00:42:39.964Z,49.59
2023-04-28T00:45:10.079Z,49.92
2023-04-28T00:47:39.326Z,50.64
2023-04-28T00:50:10.589Z,50.62
2023-04-28T00:52:39.885Z,51.54
2023-04-28T00:55:10.617Z,51.38
2023-04-28T00:57:41.025Z,51.01
2023-04-28T01:00:10.829Z,50.65
2023-04-28T01:02:40.040Z,51.54
2023-04-28T01:05:10.366Z,50.53
2023-04-28T01:07:39.986Z,53.00
2023-04-28T01:10:11.168Z,51.72
2023-04-28T01:12:41.544Z,52.42
2023-04-28T01:15:16.598Z,52.06
2023-04-28T01:17:47.020Z,54.86
2023-04-28T01:20:16.106Z,54.21
2023-04-28T01:22:45.165Z,54.22
2023-04-28T01:25:15.577Z,52.71
2023-04-28T01:27:44.375Z,52.93
2023-04-28T01:30:13.497Z,52.93
2023-04-28T01:32:45.896Z,53.83
2023-04-28T01:35:14.702Z,52.51
2023-04-28T01:37:43.582Z,52.03
2023-04-28T01:40:13.688Z,52.01
2023-04-28T01:42:44.111Z,52.26
2023-04-28T01:45:13.428Z,53.11
2023-04-28T01:47:42.309Z,52.64
2023-04-28T01:50:11.596Z,53.79
2023-04-28T01:52:40.798Z,53.04
2023-04-28T01:55:10.201Z,53.80
2023-04-28T01:57:39.699Z,54.66
2023-04-28T02:00:11.188Z,54.55
2023-04-28T02:02:51.311Z,53.48
2023-04-28T02:05:20.237Z,54.74
2023-04-28T02:07:50.310Z,55.44
2023-04-28T02:10:19.174Z,55.12
2023-04-28T02:12:48.118Z,56.88
2023-04-28T02:15:18.569Z,58.15
2023-04-28T02:17:49.063Z,57.50
2023-04-28T02:20:18.242Z,57.46
2023-04-28T02:22:47.071Z,57.65
2023-04-28T02:25:16.061Z,58.21
2023-04-28T02:27:45.282Z,59.46
2023-04-28T02:30:14.776Z,60.96
2023-04-28T02:32:45.078Z,61.60
2023-04-28T02:35:13.964Z,62.19
2023-04-28T02:37:43.147Z,67.29
2023-04-28T02:40:12.923Z,67.71
2023-04-28T02:42:41.872Z,66.57
2023-04-28T02:45:11.431Z,59.81
2023-04-28T02:47:40.404Z,60.22
2023-04-28T02:50:11.728Z,64.02
2023-04-28T02:52:40.819Z,66.63
2023-04-28T02:55:10.191Z,64.89
2023-04-28T02:57:39.066Z,67.35
2023-04-28T03:00:10.399Z,71.71
2023-04-28T03:02:53.463Z,73.50
2023-04-28T03:05:23.867Z,74.96
2023-04-28T03:07:53.122Z,77.87
2023-04-28T03:10:22.338Z,78.85
2023-04-28T03:12:51.531Z,77.04
2023-04-28T03:15:20.708Z,75.13
2023-04-28T03:17:49.575Z,77.84
2023-04-28T03:20:19.298Z,76.91
2023-04-28T03:22:49.522Z,80.18
2023-04-28T03:25:18.476Z,79.69
2023-04-28T03:27:53.227Z,81.59
2023-04-28T03:30:22.457Z,82.18
2023-04-28T03:32:51.381Z,80.89
2023-04-28T03:35:20.460Z,80.14
2023-04-28T03:37:50.933Z,78.64
2023-04-28T03:40:20.379Z,77.49
2023-04-28T03:43:09.550Z,82.01
2023-04-28T03:45:43.508Z,81.57
2023-04-28T03:48:12.540Z,80.51
2023-04-28T03:50:42.602Z,81.74
2023-04-28T03:53:12.960Z,78.60
2023-04-28T03:55:42.117Z,81.43
2023-04-28T03:58:10.984Z,83.29
2023-04-28T04:00:39.896Z,83.07
2023-04-28T04:03:08.875Z,84.54
2023-04-28T04:05:37.881Z,83.96
2023-04-28T04:08:07.548Z,77.46
2023-04-28T04:10:37.723Z,77.46
2023-04-28T04:13:06.628Z,79.19
2023-04-28T04:15:35.634Z,79.36
2023-04-28T04:18:06.117Z,77.25
2023-04-28T04:20:54.168Z,83.54
2023-04-28T04:23:23.438Z,82.34
2023-04-28T04:25:54.030Z,80.95
2023-04-28T04:28:22.875Z,81.70
2023-04-28T04:30:51.766Z,83.25
2023-04-28T04:33:20.706Z,87.03
2023-04-28T04:35:49.760Z,91.70
2023-04-28T04:38:18.800Z,88.98
2023-04-28T04:40:47.636Z,86.44
2023-04-28T04:43:17.931Z,78.47
2023-04-28T04:45:50.696Z,74.14
2023-04-28T04:48:19.630Z,73.71
2023-04-28T04:50:49.354Z,75.34
2023-04-28T04:53:18.750Z,76.27
2023-04-28T04:55:47.620Z,76.55
2023-04-28T04:58:19.129Z,76.45
2023-04-28T05:01:11.422Z,74.56
2023-04-28T05:03:40.563Z,75.78
2023-04-28T05:06:09.622Z,76.33
2023-04-28T05:08:45.864Z,72.37
2023-04-28T05:11:14.730Z,70.11
2023-04-28T05:13:45.219Z,71.58
2023-04-28T05:16:15.052Z,73.73
2023-04-28T05:18:47.015Z,70.62
2023-04-28T05:21:17.295Z,69.49
2023-04-28T05:23:46.165Z,74.49
2023-04-28T05:26:15.017Z,71.85
2023-04-28T05:28:45.288Z,74.83
2023-04-28T05:31:14.182Z,77.60
2023-04-28T05:33:43.264Z,76.13
2023-04-28T05:36:12.268Z,73.94
2023-04-28T05:38:41.489Z,71.92
2023-04-28T05:41:10.501Z,64.39
2023-04-28T05:43:39.446Z,65.31
2023-04-28T05:46:21.978Z,61.04
2023-04-28T05:49:00.484Z,62.22
2023-04-28T05:51:34.875Z,60.92
2023-04-28T05:54:04.428Z,58.97
2023-04-28T05:56:38.793Z,58.25
2023-04-28T05:59:07.741Z,58.87
2023-04-28T06:01:38.867Z,58.80
2023-04-28T06:04:08.468Z,58.07
2023-04-28T06:06:38.465Z,59.18
2023-04-28T06:09:07.316Z,58.56
2023-04-28T06:11:36.113Z,54.21
2023-04-28T06:14:04.893Z,56.96
2023-04-28T06:16:53.733Z,56.19
2023-04-28T06:19:22.476Z,55.89
2023-04-28T06:21:53.200Z,54.83
2023-04-28T06:24:22.269Z,55.93
2023-04-28T06:26:51.516Z,57.18
2023-04-28T06:29:20.628Z,54.49
2023-04-28T06:31:49.499Z,53.05
2023-04-28T06:34:19.722Z,52.71
2023-04-28T06:36:48.599Z,51.63
2023-04-28T06:39:17.475Z,49.29
2023-04-28T06:41:47.251Z,46.54
2023-04-28T06:44:16.981Z,47.66
2023-04-28T06:46:46.264Z,48.94
2023-04-28T06:49:15.080Z,52.17
2023-04-28T06:51:46.234Z,46.71
2023-04-28T06:54:15.217Z,49.26
2023-04-28T06:56:45.835Z,49.27
2023-04-28T06:59:14.737Z,49.35
2023-04-28T07:01:43.637Z,47.21
2023-04-28T07:04:12.780Z,45.77
2023-04-28T07:06:41.721Z,47.32
2023-04-28T07:09:12.047Z,46.42
2023-04-28T07:11:40.909Z,42.79
2023-04-28T07:14:09.758Z,45.30
2023-04-28T07:16:38.639Z,45.21
2023-04-28T07:19:07.537Z,44.53
2023-04-28T07:21:36.528Z,45.16
2023-04-28T07:24:05.628Z,44.27
2023-04-28T07:26:36.328Z,43.28
2023-04-28T07:29:05.156Z,45.26
2023-04-28T07:31:33.980Z,43.91
2023-04-28T07:34:03.198Z,43.75
2023-04-28T07:36:32.834Z,42.22
2023-04-28T07:39:02.089Z,41.38
2023-04-28T07:41:30.933Z,41.13
2023-04-28T07:44:01.154Z,42.18
2023-04-28T07:46:30.209Z,41.97
2023-04-28T07:48:59.109Z,42.01
2023-04-28T07:51:28.628Z,41.84
2023-04-28T07:53:57.463Z,41.25
2023-04-28T07:56:26.922Z,41.85
2023-04-28T07:58:55.758Z,38.65
2023-04-28T08:01:25.994Z,39.45
2023-04-28T08:03:54.918Z,37.32
2023-04-28T08:06:24.056Z,38.82
2023-04-28T08:08:52.808Z,39.17
2023-04-28T08:11:22.617Z,39.20
2023-04-28T08:13:51.412Z,40.63
2023-04-28T08:16:20.338Z,39.80
2023-04-28T08:18:50.683Z,42.03
2023-04-28T08:21:19.586Z,42.83
2023-04-28T08:23:48.525Z,41.68
2023-04-28T08:26:17.490Z,40.26
2023-04-28T08:28:46.271Z,42.29
2023-04-28T08:31:15.165Z,43.05
2023-04-28T08:33:48.560Z,39.99
2023-04-28T08:36:19.155Z,40.17
2023-04-28T08:38:48.415Z,40.47
2023-04-28T08:41:17.960Z,42.35
2023-04-28T08:43:46.965Z,42.37
2023-04-28T08:46:16.104Z,41.86
2023-04-28T08:48:46.601Z,41.70
2023-04-28T08:51:26.901Z,41.59
2023-04-28T08:54:22.410Z,41.07
2023-04-28T08:56:49.668Z,40.94
2023-04-28T08:59:19.475Z,40.52
2023-04-28T09:01:50.058Z,40.46
2023-04-28T09:04:19.831Z,38.99
2023-04-28T09:06:50.597Z,39.10
2023-04-28T09:09:20.279Z,37.65
2023-04-28T09:11:53.414Z,39.46
2023-04-28T09:14:22.509Z,38.21
2023-04-28T09:16:52.036Z,39.20
2023-04-28T09:19:21.397Z,37.19
2023-04-28T09:21:54.059Z,36.02
2023-04-28T09:24:31.400Z,34.28
2023-04-28T09:27:00.784Z,31.29
2023-04-28T09:29:29.953Z,34.76
2023-04-28T09:32:14.553Z,37.25
2023-04-28T09:34:47.371Z,38.78
2023-04-28T09:37:20.012Z,36.22
2023-04-28T09:39:50.874Z,37.56
2023-04-28T09:42:36.889Z,35.08
2023-04-28T09:45:07.108Z,36.08
2023-04-28T09:47:38.094Z,33.00
2023-04-28T09:50:09.675Z,34.40
2023-04-28T09:52:40.247Z,32.52
2023-04-28T09:55:10.420Z,31.35
2023-04-28T09:57:40.364Z,32.19
2023-04-28T10:00:10.539Z,31.14
2023-04-28T10:02:43.731Z,29.26
2023-04-28T10:05:13.958Z,30.96
2023-04-28T10:07:44.563Z,31.45
2023-04-28T10:10:14.891Z,30.49
2023-04-28T10:12:44.901Z,28.48
2023-04-28T10:15:14.779Z,30.48
2023-04-28T10:17:43.704Z,29.82
2023-04-28T10:20:14.235Z,31.81
2023-04-28T10:23:00.557Z,31.04
2023-04-28T10:25:32.698Z,32.17
2023-04-28T10:28:02.458Z,31.00
2023-04-28T10:30:31.537Z,30.62
2023-04-28T10:33:28.609Z,30.51
2023-04-28T10:35:57.914Z,28.96
2023-04-28T10:38:28.157Z,26.50
2023-04-28T10:41:02.516Z,28.81
2023-04-28T10:43:37.908Z,27.06
2023-04-28T10:46:10.699Z,28.46
2023-04-28T10:49:06.303Z,30.38
2023-04-28T10:51:36.199Z,29.32
2023-04-28T10:54:28.387Z,28.25
2023-04-28T10:57:23.018Z,28.72
2023-04-28T10:59:52.672Z,30.21
2023-04-28T11:02:44.295Z,28.88
2023-04-28T11:05:19.227Z,28.25
2023-04-28T11:08:30.220Z,28.57
2023-04-28T11:11:20.727Z,28.32
2023-04-28T11:13:50.695Z,29.84
2023-04-28T11:16:22.053Z,29.33
2023-04-28T11:19:07.259Z,28.64
2023-04-28T11:21:36.046Z,26.16
2023-04-28T11:24:11.286Z,27.93
2023-04-28T11:26:41.505Z,26.84
2023-04-28T11:29:10.738Z,28.12
2023-04-28T11:31:39.856Z,26.32
2023-04-28T11:34:12.067Z,29.61
2023-04-28T11:36:42.927Z,30.28
2023-04-28T11:39:13.094Z,27.16
2023-04-28T11:41:45.796Z,28.31
2023-04-28T11:44:15.375Z,29.39
2023-04-28T11:46:50.859Z,28.54
2023-04-28T11:49:21.185Z,31.24
2023-04-28T11:51:50.452Z,26.32
2023-04-28T11:54:23.642Z,26.29
2023-04-28T11:56:54.505Z,29.24
2023-04-28T11:59:26.710Z,27.47
2023-04-28T12:01:59.311Z,26.43
2023-04-28T12:04:29.934Z,26.49
2023-04-28T12:07:07.139Z,23.92
2023-04-28T12:09:36.432Z,24.54
2023-04-28T12:12:08.157Z,23.72
2023-04-28T12:14:58.004Z,25.73
2023-04-28T12:17:27.765Z,25.55
2023-04-28T12:19:57.004Z,24.69
2023-04-28T12:22:26.774Z,24.95
2023-04-28T12:25:06.841Z,25.37
2023-04-28T12:27:39.297Z,25.72
2023-04-28T12:30:26.807Z,24.45
2023-04-28T12:32:57.733Z,25.61
2023-04-28T12:35:27.818Z,24.74
2023-04-28T12:37:58.603Z,26.00
2023-04-28T12:40:27.692Z,25.29
2023-04-28T12:42:58.907Z,25.98
2023-04-28T12:45:27.836Z,24.94
2023-04-28T12:47:57.061Z,24.47
2023-04-28T12:50:27.093Z,24.50
2023-04-28T12:52:56.365Z,25.12
2023-04-28T12:55:25.199Z,25.02
2023-04-28T12:57:54.110Z,25.93
2023-04-28T13:00:25.157Z,24.67
2023-04-28T13:02:54.249Z,24.91
2023-04-28T13:05:23.238Z,24.82
2023-04-28T13:07:52.626Z,23.93
2023-04-28T13:10:23.779Z,24.94
2023-04-28T13:12:52.615Z,25.16
2023-04-28T13:15:21.769Z,23.89
2023-04-28T13:17:52.042Z,26.62
2023-04-28T13:20:20.965Z,25.05
2023-04-28T13:22:49.802Z,23.44
2023-04-28T13:25:18.604Z,23.75
2023-04-28T13:27:47.390Z,24.32
2023-04-28T13:30:16.334Z,26.28
2023-04-28T13:32:45.190Z,25.40
2023-04-28T13:35:15.450Z,27.04
2023-04-28T13:37:46.162Z,25.46
2023-04-28T13:40:15.017Z,25.39
2023-04-28T13:42:43.946Z,27.49
2023-04-28T13:45:14.440Z,27.52
2023-04-28T13:47:44.496Z,26.41
2023-04-28T13:50:13.334Z,25.99
2023-04-28T13:52:43.501Z,27.37
2023-04-28T13:55:12.338Z,27.21
2023-04-28T13:57:41.233Z,25.83
2023-04-28T14:00:11.662Z,27.68
2023-04-28T14:02:41.512Z,26.09
2023-04-28T14:05:11.424Z,27.06
2023-04-28T14:07:40.269Z,28.38
2023-04-28T14:10:12.054Z,26.86
2023-04-28T14:12:41.157Z,27.72
2023-04-28T14:15:10.549Z,27.92
2023-04-28T14:17:39.704Z,28.88
2023-04-28T14:20:11.740Z,26.76
2023-04-28T14:22:41.003Z,27.86
2023-04-28T14:25:11.879Z,26.57
2023-04-28T14:27:40.726Z,26.53
2023-04-28T14:30:10.438Z,26.23
2023-04-28T14:32:40.024Z,27.82
2023-04-28T14:35:10.519Z,28.22
2023-04-28T14:37:39.549Z,28.37
2023-04-28T14:40:09.686Z,27.98
2023-04-28T14:42:40.182Z,27.53
2023-04-28T14:45:10.845Z,29.04
2023-04-28T14:47:40.396Z,28.37
2023-04-28T14:50:13.200Z,27.85
2023-04-28T14:52:42.866Z,28.22
2023-04-28T14:55:11.746Z,28.62
2023-04-28T14:57:42.161Z,28.10
2023-04-28T15:00:12.018Z,26.75
2023-04-28T15:02:41.043Z,28.53
2023-04-28T15:05:11.745Z,27.47
2023-04-28T15:07:40.751Z,28.71
2023-04-28T15:10:10.250Z,28.93
2023-04-28T15:12:39.129Z,30.74
2023-04-28T15:15:11.294Z,30.16
2023-04-28T16:51:17.162Z,35.35
2023-04-28T16:53:46.115Z,36.32
2023-04-28T16:56:14.921Z,36.11
2023-04-28T16:58:43.790Z,37.03
2023-04-28T17:01:12.654Z,36.82
2023-04-28T17:03:42.352Z,37.48
2023-04-28T17:06:11.468Z,37.93
2023-04-28T17:08:42.249Z,38.16
2023-04-28T17:11:11.093Z,37.61
2023-04-28T17:13:39.956Z,38.66
2023-04-28T17:16:11.426Z,38.84
2023-04-28T17:18:41.364Z,39.12
2023-04-28T17:21:11.686Z,39.67
2023-04-28T17:23:42.255Z,40.06
2023-04-28T17:26:11.297Z,39.63
2023-04-28T17:28:40.960Z,39.62
2023-04-28T17:31:09.819Z,39.82
2023-04-28T17:33:38.667Z,39.75
2023-04-28T17:36:07.799Z,40.09
2023-04-28T17:38:37.006Z,40.72
2023-04-28T17:41:07.666Z,40.19
2023-04-28T17:43:37.682Z,41.22
2023-04-28T17:46:06.612Z,40.85
2023-04-28T17:48:35.463Z,40.63
2023-04-28T17:51:04.410Z,41.14
2023-04-28T17:53:33.276Z,41.84
2023-04-28T17:56:02.461Z,41.65
2023-04-28T17:58:33.761Z,41.35
2023-04-28T18:01:03.212Z,41.69
2023-04-28T18:03:32.953Z,42.12
2023-04-28T18:06:02.529Z,41.88
2023-04-28T18:08:31.710Z,41.99
2023-04-28T18:11:02.093Z,42.20
2023-04-28T18:13:33.495Z,43.25
2023-04-28T18:16:04.564Z,44.13
2023-04-28T18:18:35.495Z,45.54
2023-04-28T18:21:04.831Z,44.71
2023-04-28T18:23:33.955Z,44.90
2023-04-28T18:26:03.322Z,44.48
2023-04-28T18:28:34.033Z,43.76
2023-04-28T18:31:06.161Z,44.57
2023-04-28T18:33:35.044Z,44.84
2023-04-28T18:36:05.249Z,44.61
2023-04-28T18:38:36.497Z,45.11
2023-04-28T18:41:13.755Z,44.72
2023-04-28T18:43:44.611Z,45.44
2023-04-28T18:46:13.699Z,44.79
2023-04-28T18:48:43.396Z,44.19
2023-04-28T18:51:12.620Z,44.88
2023-04-28T18:53:41.610Z,44.58
2023-04-28T18:56:10.576Z,46.17
2023-04-28T18:58:40.853Z,47.22
2023-04-28T19:01:15.797Z,47.75
2023-04-28T19:03:45.089Z,47.54
2023-04-28T19:06:16.234Z,46.00
2023-04-28T19:08:45.085Z,47.51
2023-04-28T19:11:14.033Z,46.94
2023-04-28T19:13:44.710Z,47.40
2023-04-28T19:16:13.629Z,46.79
2023-04-28T19:18:44.602Z,48.18
2023-04-28T19:21:13.966Z,54.74
2023-04-28T19:23:43.374Z,49.78
2023-04-28T19:26:12.651Z,49.33
2023-04-28T19:28:42.988Z,49.86
2023-04-28T19:31:11.915Z,50.55
2023-04-28T19:33:40.776Z,51.60
2023-04-28T19:36:10.946Z,50.40
2023-04-28T19:38:40.525Z,50.75
2023-04-28T19:41:09.420Z,51.93
2023-04-28T19:43:38.272Z,52.45
2023-04-28T19:46:08.192Z,54.47
2023-04-28T19:48:37.139Z,55.43
2023-04-28T19:51:05.982Z,54.76
2023-04-28T19:53:40.506Z,55.77
2023-04-28T19:56:10.151Z,57.06
2023-04-28T19:58:39.909Z,56.80
2023-04-28T20:01:08.906Z,60.38
2023-04-28T20:03:37.996Z,59.73
2023-04-28T20:06:07.545Z,59.12
2023-04-28T20:08:37.773Z,61.91
2023-04-28T20:11:07.766Z,61.67
2023-04-28T20:13:36.674Z,64.42
2023-04-28T20:16:07.085Z,65.10
2023-04-28T20:18:37.463Z,64.65
2023-04-28T20:21:06.632Z,63.80
2023-04-28T20:23:36.750Z,62.82
2023-04-28T20:26:07.041Z,62.89
2023-04-28T20:28:36.192Z,64.66
2023-04-28T20:31:08.995Z,66.62
2023-04-28T20:33:37.903Z,68.08
2023-04-28T20:36:06.790Z,71.76
2023-04-28T20:38:37.450Z,70.83
2023-04-28T20:41:08.683Z,72.84
2023-04-28T20:43:37.631Z,71.06
2023-04-28T20:46:10.256Z,68.55
2023-04-28T20:48:39.224Z,66.86
2023-04-28T20:51:08.205Z,67.47
2023-04-28T20:53:38.377Z,65.74
2023-04-28T20:56:08.727Z,64.09
2023-04-28T20:58:37.940Z,64.03
2023-04-28T21:01:06.836Z,65.43
2023-04-28T21:03:35.730Z,66.99
2023-04-28T21:06:04.724Z,68.02
2023-04-28T21:08:33.588Z,71.03
2023-04-28T21:11:02.455Z,69.44
2023-04-28T21:13:32.622Z,67.31
2023-04-28T21:16:02.058Z,69.64
2023-04-28T21:18:30.905Z,71.25
2023-04-28T21:20:59.755Z,74.50
2023-04-28T21:23:28.598Z,75.16
2023-04-28T21:25:57.599Z,75.52
2023-04-28T21:28:26.427Z,73.80
2023-04-28T21:30:56.637Z,72.11
2023-04-28T21:33:25.752Z,72.17
2023-04-28T21:35:54.622Z,75.05
2023-04-28T21:38:23.532Z,74.29
2023-04-28T21:40:52.646Z,73.22
2023-04-28T21:43:22.431Z,77.85
2023-04-28T21:45:52.234Z,78.96
2023-04-28T21:48:22.520Z,79.11
2023-04-28T21:50:51.527Z,78.34
2023-04-28T21:53:20.658Z,78.78
2023-04-28T21:55:49.512Z,81.40
2023-04-28T21:58:18.565Z,81.86
2023-04-28T22:00:47.621Z,81.42
2023-04-28T22:03:16.784Z,82.34
2023-04-28T22:05:47.638Z,80.95
2023-04-28T22:08:17.160Z,80.74
2023-04-28T22:10:46.557Z,81.92
2023-04-28T22:13:15.915Z,81.20
2023-04-28T22:15:44.822Z,81.60
2023-04-28T22:18:13.926Z,83.59
2023-04-28T22:20:42.830Z,82.35
2023-04-28T22:23:13.029Z,83.41
2023-04-28T22:25:42.366Z,84.13
2023-04-28T22:28:11.142Z,82.40
2023-04-28T22:30:40.395Z,83.14
2023-04-28T22:33:10.329Z,81.52
2023-04-28T22:35:39.184Z,82.65
2023-04-28T22:38:08.093Z,81.92
2023-04-28T22:40:38.468Z,82.87
2023-04-28T22:43:07.341Z,85.26
2023-04-28T22:45:36.168Z,85.97
2023-04-28T22:48:05.636Z,86.30
2023-04-28T22:50:34.503Z,86.03
2023-04-28T22:53:05.071Z,86.02
2023-04-28T22:55:34.020Z,86.35
2023-04-28T22:58:04.347Z,87.85
2023-04-28T23:00:33.871Z,89.40
2023-04-28T23:03:04.629Z,91.40
2023-04-28T23:05:33.508Z,91.34
2023-04-28T23:08:02.883Z,95.03
2023-04-28T23:10:31.812Z,96.60
2023-04-28T23:13:01.997Z,95.72
2023-04-28T23:15:32.313Z,94.58
2023-04-28T23:18:01.206Z,92.93
2023-04-28T23:20:30.073Z,88.31
2023-04-28T23:22:59.469Z,89.76
2023-04-28T23:25:28.270Z,92.77
2023-04-28T23:27:57.136Z,92.52
2023-04-28T23:30:26.153Z,91.08
2023-04-28T23:32:56.543Z,91.66
2023-04-28T23:35:25.633Z,90.02
2023-04-28T23:37:54.643Z,89.25
2023-04-28T23:40:23.526Z,90.24
2023-04-28T23:42:52.484Z,91.94
2023-04-28T23:45:21.345Z,100.00
2023-04-28T23:47:50.304Z,100.00
2023-04-28T23:50:20.571Z,100.00
2023-04-28T23:52:49.744Z,98.09
2023-04-28T23:55:18.720Z,97.80
2023-04-28T23:57:47.704Z,96.55
